Time;durP1;ratioP1;P1;durP2;ratioP2;P2;SDS_P1;SDS_P2;PMS_P1;PMS_P2;Temp;Humidity;BMP_temperature;BMP_pressure;BME280_temperature;BME280_humidity;BME280_pressure;Samples;Min_cycle;Max_cycle;Signal;HPM_P1;HPM_P2
2022/03/10 00:02:05;;;;;;;132.50;65.35;;;3.40;99.90;;;;;;5055083;28;20086;-75
2022/03/10 00:04:31;;;;;;;131.32;67.25;;;3.40;99.90;;;;;;5055426;28;20021;-73
2022/03/10 00:06:58;;;;;;;136.00;68.15;;;3.40;99.90;;;;;;5055089;28;20091;-75
2022/03/10 00:09:24;;;;;;;130.90;65.35;;;3.40;99.90;;;;;;5055099;28;20104;-73
2022/03/10 00:11:49;;;;;;;131.00;66.38;;;3.30;99.90;;;;;;5055046;28;20115;-73
2022/03/10 00:14:15;;;;;;;134.43;67.13;;;3.40;99.90;;;;;;5055106;28;20025;-75
2022/03/10 00:16:41;;;;;;;136.48;70.13;;;3.40;99.90;;;;;;5054977;28;20025;-75
2022/03/10 00:19:07;;;;;;;121.75;66.63;;;3.40;99.90;;;;;;5054705;28;20052;-75
2022/03/10 00:21:33;;;;;;;129.15;66.22;;;3.40;99.90;;;;;;5055023;28;20036;-74
2022/03/10 00:23:58;;;;;;;126.55;66.03;;;3.40;99.90;;;;;;5052084;28;20426;-75
2022/03/10 00:26:24;;;;;;;128.70;67.53;;;3.40;99.90;;;;;;5053610;28;20025;-74
2022/03/10 00:28:50;;;;;;;131.30;70.32;;;3.40;99.90;;;;;;5054840;28;20072;-76
2022/03/10 00:31:16;;;;;;;148.25;75.07;;;3.40;99.90;;;;;;5054098;28;20048;-75
2022/03/10 00:33:41;;;;;;;156.38;78.85;;;3.40;99.90;;;;;;5054506;28;20021;-74
2022/03/10 00:36:07;;;;;;;160.73;82.15;;;3.40;99.90;;;;;;5055341;28;20391;-74
2022/03/10 00:38:34;;;;;;;153.60;79.80;;;3.40;99.90;;;;;;5055825;28;20178;-74
2022/03/10 00:40:59;;;;;;;164.90;85.78;;;3.40;99.90;;;;;;5055000;28;20025;-73
2022/03/10 00:43:26;;;;;;;162.05;85.05;;;3.30;99.90;;;;;;5054931;28;20036;-74
2022/03/10 00:45:52;;;;;;;168.95;88.90;;;3.30;99.90;;;;;;5054772;28;20025;-74
2022/03/10 00:48:17;;;;;;;199.23;96.35;;;3.30;99.90;;;;;;5054908;28;20028;-74
2022/03/10 00:50:43;;;;;;;217.43;106.32;;;3.20;99.90;;;;;;5054517;28;20029;-73
2022/03/10 00:53:10;;;;;;;239.23;111.60;;;3.20;99.90;;;;;;5055585;28;20040;-73
2022/03/10 00:55:36;;;;;;;225.13;108.40;;;3.20;99.90;;;;;;5054708;28;20025;-73
2022/03/10 00:58:02;;;;;;;226.57;104.32;;;3.20;99.90;;;;;;5055208;28;20075;-74
2022/03/10 01:00:29;;;;;;;225.90;101.63;;;3.20;99.90;;;;;;5055560;28;20025;-74
2022/03/10 01:02:57;;;;;;;203.75;96.32;;;3.20;99.90;;;;;;5055261;28;20478;-75
2022/03/10 01:05:23;;;;;;;195.68;91.47;;;3.20;99.90;;;;;;5055025;28;20082;-74
2022/03/10 01:07:50;;;;;;;202.27;93.72;;;3.20;99.90;;;;;;5054519;28;20426;-74
2022/03/10 01:10:17;;;;;;;199.55;92.03;;;3.20;99.90;;;;;;5054208;28;20434;-74
2022/03/10 01:12:45;;;;;;;205.20;96.22;;;3.20;99.90;;;;;;5054562;28;20353;-74
2022/03/10 01:15:20;;;;;;;243.23;104.22;;;3.30;99.90;;;;;;5054439;28;20017;-75
2022/03/10 01:17:46;;;;;;;267.50;112.10;;;3.30;99.90;;;;;;5055203;28;20029;-74
2022/03/10 01:20:12;;;;;;;222.82;97.35;;;3.30;99.90;;;;;;5054643;28;20463;-74
2022/03/10 01:22:38;;;;;;;207.85;94.70;;;3.30;99.90;;;;;;5054615;28;20037;-74
2022/03/10 01:25:07;;;;;;;225.50;100.25;;;3.30;99.90;;;;;;5054647;28;20127;-75
2022/03/10 01:27:33;;;;;;;219.45;100.68;;;3.30;99.90;;;;;;5054709;28;20025;-75
2022/03/10 01:29:59;;;;;;;217.27;97.57;;;3.20;99.90;;;;;;5054813;28;20076;-75
2022/03/10 01:32:25;;;;;;;208.20;95.82;;;3.20;99.90;;;;;;5054427;28;20029;-75
2022/03/10 01:34:52;;;;;;;213.13;101.05;;;3.20;99.90;;;;;;5054815;28;20349;-75
2022/03/10 01:37:18;;;;;;;200.27;94.65;;;3.20;99.90;;;;;;5054470;28;20036;-75
2022/03/10 01:39:44;;;;;;;207.05;96.63;;;3.20;99.90;;;;;;5054581;28;20025;-75
2022/03/10 01:42:10;;;;;;;202.00;97.63;;;3.10;99.90;;;;;;5054766;28;20112;-75
2022/03/10 01:44:37;;;;;;;220.85;103.63;;;3.10;99.90;;;;;;5054353;28;20143;-75
2022/03/10 01:47:05;;;;;;;239.30;110.90;;;3.10;99.90;;;;;;5053973;28;20032;-76
2022/03/10 01:49:32;;;;;;;244.45;114.50;;;3.10;99.90;;;;;;5054023;28;20455;-75
2022/03/10 01:51:59;;;;;;;224.88;104.35;;;3.20;99.90;;;;;;5053770;28;20035;-74
2022/03/10 01:54:25;;;;;;;207.90;98.28;;;3.20;99.90;;;;;;5054003;28;20021;-74
2022/03/10 01:56:51;;;;;;;185.35;94.03;;;3.20;99.90;;;;;;5054081;28;20108;-74
2022/03/10 01:59:18;;;;;;;178.57;91.28;;;3.20;99.90;;;;;;5054191;28;20481;-74
2022/03/10 02:01:45;;;;;;;183.40;91.40;;;3.20;99.90;;;;;;5053691;28;20108;-73
2022/03/10 02:04:11;;;;;;;178.38;92.88;;;3.10;99.90;;;;;;5054370;28;20079;-74
2022/03/10 02:06:36;;;;;;;184.75;97.35;;;3.10;99.90;;;;;;5053908;28;20025;-74
2022/03/10 02:11:48;;;;;;;184.52;93.38;;;3.10;99.90;;;;;;5054145;28;20082;-73
2022/03/10 02:19:43;;;;;;;192.15;94.47;;;3.10;99.90;;;;;;5053266;28;20457;-75
2022/03/10 02:22:14;;;;;;;186.40;92.47;;;3.10;99.90;;;;;;5053509;28;20036;-74
2022/03/10 02:24:42;;;;;;;200.32;97.32;;;3.10;99.90;;;;;;5053717;28;20033;-74
2022/03/10 02:27:24;;;;;;;188.50;93.20;;;3.10;99.90;;;;;;5052328;28;20037;-75
2022/03/10 02:29:55;;;;;;;182.82;93.93;;;3.00;99.90;;;;;;5053670;28;20052;-74
2022/03/10 02:32:22;;;;;;;206.63;103.22;;;3.10;99.90;;;;;;5053465;28;20383;-74
2022/03/10 02:34:49;;;;;;;201.02;99.28;;;3.10;99.90;;;;;;5054151;28;20021;-75
2022/03/10 02:37:15;;;;;;;209.75;104.00;;;3.00;99.90;;;;;;5053596;28;20501;-75
2022/03/10 02:39:42;;;;;;;217.90;106.65;;;3.00;99.90;;;;;;5053719;28;20029;-74
2022/03/10 02:42:09;;;;;;;250.48;123.05;;;3.00;99.90;;;;;;5053423;28;20071;-75
2022/03/10 02:44:41;;;;;;;329.52;151.32;;;3.00;99.90;;;;;;5053643;28;20029;-74
2022/03/10 02:47:06;;;;;;;312.65;145.27;;;3.10;99.90;;;;;;5053672;28;20052;-74
2022/03/10 02:49:32;;;;;;;288.00;139.63;;;3.00;99.90;;;;;;5053460;28;20087;-75
2022/03/10 02:51:58;;;;;;;301.52;142.68;;;3.00;99.90;;;;;;5053468;28;20035;-75
2022/03/10 02:54:24;;;;;;;251.43;121.18;;;3.00;99.90;;;;;;5052859;28;20479;-75
2022/03/10 02:56:49;;;;;;;212.60;103.10;;;3.00;99.90;;;;;;5053251;28;20472;-74
2022/03/10 02:59:15;;;;;;;213.70;105.68;;;3.00;99.90;;;;;;5053435;28;20029;-75
2022/03/10 03:01:41;;;;;;;204.57;99.80;;;3.10;99.90;;;;;;5053431;28;20112;-75
2022/03/10 03:04:07;;;;;;;188.45;91.78;;;3.10;99.90;;;;;;5052944;28;20033;-74
2022/03/10 03:06:32;;;;;;;165.25;81.78;;;3.00;99.90;;;;;;5053060;28;20025;-75
2022/03/10 03:08:58;;;;;;;163.52;82.22;;;3.00;99.90;;;;;;5053033;28;20078;-75
2022/03/10 03:11:24;;;;;;;150.05;76.05;;;3.10;99.90;;;;;;5052796;28;20083;-75
2022/03/10 03:13:50;;;;;;;153.85;76.43;;;3.00;99.90;;;;;;5053259;28;20101;-74
2022/03/10 03:16:15;;;;;;;153.13;78.50;;;3.00;99.90;;;;;;5053442;28;20028;-74
2022/03/10 03:18:41;;;;;;;152.13;75.70;;;3.00;99.90;;;;;;5054968;28;20451;-75
2022/03/10 03:21:07;;;;;;;151.10;75.47;;;3.00;99.90;;;;;;5056892;28;20535;-74
2022/03/10 03:23:33;;;;;;;145.93;71.50;;;3.10;99.90;;;;;;5057100;28;20104;-76
2022/03/10 03:25:58;;;;;;;139.27;69.53;;;3.10;99.90;;;;;;5056807;28;20025;-75
2022/03/10 03:28:24;;;;;;;152.60;75.10;;;3.10;99.90;;;;;;5057270;28;20460;-74
2022/03/10 03:30:50;;;;;;;146.82;74.53;;;3.20;99.90;;;;;;5057301;28;20471;-76
2022/03/10 03:33:16;;;;;;;159.60;79.13;;;3.20;99.90;;;;;;5056967;28;20032;-74
2022/03/10 03:35:42;;;;;;;149.30;79.13;;;3.20;99.90;;;;;;5057037;28;20025;-75
2022/03/10 03:38:08;;;;;;;138.52;72.80;;;3.20;99.90;;;;;;5057116;28;20024;-74
2022/03/10 03:40:34;;;;;;;139.02;72.88;;;3.20;99.90;;;;;;5057350;28;20156;-74
2022/03/10 03:43:00;;;;;;;144.18;70.13;;;3.20;99.90;;;;;;5056562;28;20108;-73
2022/03/10 03:45:26;;;;;;;139.57;68.93;;;3.20;99.90;;;;;;5056819;28;20107;-75
2022/03/10 03:47:53;;;;;;;137.18;70.30;;;3.20;99.90;;;;;;5056900;28;20017;-73
2022/03/10 03:50:19;;;;;;;129.23;66.30;;;3.20;99.90;;;;;;5056929;28;20032;-74
2022/03/10 03:52:44;;;;;;;132.82;67.88;;;3.10;99.90;;;;;;5056215;28;20029;-75
2022/03/10 03:55:11;;;;;;;127.72;63.33;;;3.20;99.90;;;;;;5056505;28;20076;-75
2022/03/10 03:57:37;;;;;;;117.90;60.55;;;3.10;99.90;;;;;;5056420;28;20100;-75
2022/03/10 04:00:04;;;;;;;113.35;59.50;;;3.20;99.90;;;;;;5056427;28;20108;-75
2022/03/10 04:02:31;;;;;;;118.38;61.33;;;3.20;99.90;;;;;;5056444;28;20063;-75
2022/03/10 04:04:57;;;;;;;110.50;56.63;;;3.20;99.90;;;;;;5056811;28;20029;-74
2022/03/10 04:07:23;;;;;;;100.15;51.45;;;3.10;99.90;;;;;;5056374;28;20036;-74
2022/03/10 04:09:49;;;;;;;105.95;53.00;;;3.20;99.90;;;;;;5055894;28;20029;-74
2022/03/10 04:12:15;;;;;;;90.40;49.80;;;3.20;99.90;;;;;;5056492;28;20099;-75
2022/03/10 04:14:40;;;;;;;87.53;45.28;;;3.20;99.90;;;;;;5055946;28;20128;-74
2022/03/10 04:17:06;;;;;;;71.97;36.60;;;3.20;99.90;;;;;;5056523;28;20021;-75
2022/03/10 04:19:32;;;;;;;48.45;26.05;;;3.20;99.90;;;;;;5056538;28;20371;-76
2022/03/10 04:21:58;;;;;;;46.55;25.55;;;3.20;99.90;;;;;;5055706;28;20120;-76
2022/03/10 04:24:24;;;;;;;57.70;29.42;;;3.30;99.90;;;;;;5055141;28;20061;-75
2022/03/10 04:26:50;;;;;;;38.78;21.48;;;3.30;99.90;;;;;;5055456;28;20063;-74
2022/03/10 04:29:16;;;;;;;35.05;19.98;;;3.30;99.90;;;;;;5054054;28;20144;-74
2022/03/10 04:31:42;;;;;;;32.17;18.60;;;3.30;99.90;;;;;;5055008;28;20056;-73
2022/03/10 04:34:08;;;;;;;32.75;18.27;;;3.30;99.90;;;;;;5055856;28;20029;-74
2022/03/10 04:36:34;;;;;;;39.22;21.00;;;3.30;99.90;;;;;;5056015;28;20074;-74
2022/03/10 04:39:01;;;;;;;35.47;19.63;;;3.30;99.90;;;;;;5055488;28;20067;-74
2022/03/10 04:41:26;;;;;;;43.70;23.33;;;3.20;99.90;;;;;;5055292;28;20503;-73
2022/03/10 04:43:52;;;;;;;42.28;22.15;;;3.20;99.90;;;;;;5055911;28;20052;-74
2022/03/10 04:46:18;;;;;;;39.33;23.67;;;3.20;99.90;;;;;;5055533;28;20075;-74
2022/03/10 04:48:44;;;;;;;38.30;20.80;;;3.10;99.90;;;;;;5055300;28;20033;-74
2022/03/10 04:51:10;;;;;;;41.17;21.77;;;3.10;99.90;;;;;;5055505;28;20025;-75
2022/03/10 04:53:36;;;;;;;39.40;22.02;;;3.10;99.90;;;;;;5055441;28;20055;-73
2022/03/10 04:56:02;;;;;;;41.40;23.58;;;3.10;99.90;;;;;;5055353;28;20573;-75
2022/03/10 04:58:28;;;;;;;48.22;26.33;;;2.90;99.90;;;;;;5054501;28;20375;-75
2022/03/10 05:00:53;;;;;;;45.22;24.80;;;3.00;99.90;;;;;;5054112;28;20486;-75
2022/03/10 05:03:19;;;;;;;43.03;24.80;;;2.90;99.90;;;;;;5055003;28;20033;-74
2022/03/10 05:05:46;;;;;;;44.03;24.40;;;2.90;99.90;;;;;;5054992;28;20021;-75
2022/03/10 05:08:13;;;;;;;48.20;25.15;;;2.90;99.90;;;;;;5052737;28;20079;-75
2022/03/10 05:10:39;;;;;;;49.05;26.05;;;2.90;99.90;;;;;;5055046;28;20033;-75
2022/03/10 05:13:05;;;;;;;47.22;25.38;;;2.90;99.90;;;;;;5055152;28;20033;-76
2022/03/10 05:15:32;;;;;;;48.70;26.15;;;3.00;99.90;;;;;;5055450;28;20036;-74
2022/03/10 05:17:59;;;;;;;48.63;26.05;;;2.90;99.90;;;;;;5055451;28;20029;-75
2022/03/10 05:20:27;;;;;;;61.28;32.30;;;3.00;99.90;;;;;;5054973;28;20112;-75
2022/03/10 05:22:58;;;;;;;52.85;26.55;;;3.00;99.90;;;;;;5055264;28;20086;-75
2022/03/10 05:25:25;;;;;;;50.95;28.85;;;2.90;99.90;;;;;;5055122;28;20033;-76
2022/03/10 05:27:52;;;;;;;56.90;30.10;;;3.00;99.90;;;;;;5055114;28;20017;-76
2022/03/10 05:30:19;;;;;;;62.70;32.25;;;3.00;99.90;;;;;;5054580;28;20049;-75
2022/03/10 05:32:46;;;;;;;71.25;36.28;;;3.00;99.90;;;;;;5054765;28;20490;-74
2022/03/10 05:35:17;;;;;;;73.28;34.97;;;3.00;99.90;;;;;;5055311;28;20036;-75
2022/03/10 05:37:45;;;;;;;83.38;39.67;;;2.90;99.90;;;;;;5054962;28;20025;-75
2022/03/10 05:40:15;;;;;;;66.57;33.35;;;2.90;99.90;;;;;;5054789;28;20028;-76
2022/03/10 05:42:42;;;;;;;66.75;33.25;;;3.00;99.90;;;;;;5054435;28;20107;-76
2022/03/10 05:45:09;;;;;;;69.82;36.53;;;3.00;99.90;;;;;;5053843;28;20029;-75
2022/03/10 05:47:36;;;;;;;90.93;43.13;;;3.00;99.90;;;;;;5053689;28;20044;-74
2022/03/10 05:50:03;;;;;;;104.63;45.33;;;3.00;99.90;;;;;;5054763;28;20128;-76
2022/03/10 05:52:29;;;;;;;107.30;45.38;;;3.00;99.90;;;;;;5054483;28;20039;-73
2022/03/10 05:54:55;;;;;;;68.05;33.90;;;3.00;99.90;;;;;;5054629;28;20082;-73
2022/03/10 05:57:21;;;;;;;84.70;38.08;;;3.00;99.90;;;;;;5054017;28;20025;-74
2022/03/10 05:59:46;;;;;;;94.07;44.28;;;3.00;99.90;;;;;;5053945;28;20017;-75
2022/03/10 06:02:14;;;;;;;76.68;36.85;;;3.00;99.90;;;;;;5053454;28;20459;-75
2022/03/10 06:04:40;;;;;;;89.65;42.20;;;3.00;99.90;;;;;;5053773;28;20033;-75
2022/03/10 06:07:06;;;;;;;67.50;32.58;;;3.10;99.90;;;;;;5053691;28;20025;-74
2022/03/10 06:09:32;;;;;;;85.82;43.35;;;3.00;99.90;;;;;;5053436;28;20055;-74
2022/03/10 06:11:58;;;;;;;64.10;32.75;;;3.10;99.90;;;;;;5054123;28;20035;-76
2022/03/10 06:14:24;;;;;;;55.15;27.75;;;3.00;99.90;;;;;;5053335;28;20163;-75
2022/03/10 06:16:50;;;;;;;58.88;31.30;;;3.00;99.90;;;;;;5053512;28;20515;-74
2022/03/10 06:19:16;;;;;;;59.97;31.48;;;3.00;99.90;;;;;;5053621;28;20025;-74
2022/03/10 06:21:42;;;;;;;73.55;35.83;;;3.10;99.90;;;;;;5053937;28;20025;-74
2022/03/10 06:24:08;;;;;;;59.42;29.10;;;3.10;99.90;;;;;;5053245;28;20025;-73
2022/03/10 06:26:36;;;;;;;59.22;32.58;;;3.20;99.90;;;;;;5052951;28;20028;-74
2022/03/10 06:29:04;;;;;;;49.88;27.23;;;3.20;99.90;;;;;;5051590;28;20041;-75
2022/03/10 06:31:30;;;;;;;64.75;30.15;;;3.20;99.90;;;;;;5052476;28;20479;-74
2022/03/10 06:33:57;;;;;;;69.38;31.90;;;3.20;99.90;;;;;;5053209;28;20025;-75
2022/03/10 06:36:24;;;;;;;48.88;23.70;;;3.20;99.90;;;;;;5053196;28;20028;-75
2022/03/10 06:38:49;;;;;;;42.17;23.77;;;3.20;99.90;;;;;;5053250;28;20047;-74
2022/03/10 06:41:15;;;;;;;48.92;28.73;;;3.20;99.90;;;;;;5052818;28;20707;-74
2022/03/10 06:43:41;;;;;;;38.53;21.67;;;3.30;99.90;;;;;;5053363;28;20075;-74
2022/03/10 06:46:07;;;;;;;33.33;19.20;;;3.20;99.90;;;;;;5051847;28;20032;-75
2022/03/10 06:48:33;;;;;;;36.30;19.77;;;3.30;99.90;;;;;;5050462;28;20032;-75
2022/03/10 06:50:58;;;;;;;33.95;18.13;;;3.30;99.90;;;;;;5053280;28;20372;-75
2022/03/10 06:53:24;;;;;;;36.10;18.75;;;3.30;99.90;;;;;;5052335;28;20032;-76
2022/03/10 06:55:50;;;;;;;29.98;15.88;;;3.30;99.90;;;;;;5053021;28;20032;-76
2022/03/10 06:58:16;;;;;;;40.60;20.10;;;3.30;99.90;;;;;;5052489;28;20100;-76
2022/03/10 07:00:41;;;;;;;39.67;17.92;;;3.30;99.90;;;;;;5053102;28;20414;-75
2022/03/10 07:03:07;;;;;;;31.67;16.17;;;3.30;99.90;;;;;;5053618;28;20036;-76
2022/03/10 07:05:33;;;;;;;44.17;23.50;;;3.30;99.90;;;;;;5052304;28;20029;-76
2022/03/10 07:07:59;;;;;;;40.67;21.58;;;3.30;99.90;;;;;;5053608;28;20033;-76
2022/03/10 07:10:25;;;;;;;31.65;16.67;;;3.30;99.90;;;;;;5053080;28;20074;-76
2022/03/10 07:12:51;;;;;;;33.22;16.35;;;3.20;99.90;;;;;;5053598;28;20040;-74
2022/03/10 07:15:16;;;;;;;29.70;15.18;;;3.40;99.90;;;;;;5053375;28;20040;-75
2022/03/10 07:17:42;;;;;;;26.30;12.63;;;3.70;99.90;;;;;;5053560;28;20027;-75
2022/03/10 07:20:09;;;;;;;27.02;14.30;;;3.70;99.90;;;;;;5051300;28;20037;-76
2022/03/10 07:22:35;;;;;;;28.75;14.73;;;3.60;99.90;;;;;;5049755;28;20029;-77
2022/03/10 07:25:02;;;;;;;37.55;18.73;;;3.60;99.90;;;;;;5050757;28;20032;-76
2022/03/10 07:27:28;;;;;;;30.45;14.15;;;3.90;99.90;;;;;;5051999;28;20017;-77
2022/03/10 07:29:53;;;;;;;24.35;13.23;;;4.20;99.90;;;;;;5052227;28;20037;-76
2022/03/10 07:32:22;;;;;;;30.27;15.38;;;4.10;97.50;;;;;;5053206;28;20107;-76
2022/03/10 07:34:48;;;;;;;30.33;15.98;;;4.40;99.60;;;;;;5051239;28;20035;-74
2022/03/10 07:37:15;;;;;;;24.88;11.35;;;4.90;98.70;;;;;;5052643;28;20091;-76
2022/03/10 07:39:41;;;;;;;32.10;15.70;;;4.80;95.00;;;;;;5053011;28;20032;-76
2022/03/10 07:42:07;;;;;;;25.88;12.70;;;5.50;99.10;;;;;;5053225;28;20035;-75
2022/03/10 07:44:33;;;;;;;24.33;13.27;;;5.10;93.90;;;;;;5052829;28;20033;-74
2022/03/10 07:46:59;;;;;;;26.73;13.43;;;5.10;92.90;;;;;;5053162;28;20497;-73
2022/03/10 07:49:25;;;;;;;26.77;13.85;;;5.40;93.10;;;;;;5053606;28;20029;-75
2022/03/10 07:51:50;;;;;;;23.52;13.38;;;5.40;92.70;;;;;;5052791;28;20024;-74
2022/03/10 07:54:16;;;;;;;21.75;11.15;;;5.50;91.70;;;;;;5053204;28;20104;-73
2022/03/10 07:56:42;;;;;;;16.88;10.40;;;5.40;89.30;;;;;;5053174;28;20025;-72
2022/03/10 07:59:08;;;;;;;21.45;11.30;;;5.50;88.40;;;;;;5051895;28;20513;-72
2022/03/10 08:01:33;;;;;;;23.33;12.02;;;5.50;87.10;;;;;;5052851;28;20025;-71
2022/03/10 08:03:59;;;;;;;25.73;14.20;;;5.30;86.10;;;;;;5053246;28;20033;-73
2022/03/10 08:06:27;;;;;;;28.17;13.07;;;5.20;85.30;;;;;;5056423;28;20029;-73
2022/03/10 08:08:53;;;;;;;27.27;15.05;;;5.40;88.50;;;;;;5056638;28;20029;-73
2022/03/10 08:11:19;;;;;;;30.35;12.23;;;5.60;89.20;;;;;;5056744;28;20033;-72
2022/03/10 08:13:45;;;;;;;22.90;12.65;;;5.40;87.80;;;;;;5056411;28;20029;-74
2022/03/10 08:16:11;;;;;;;29.52;14.25;;;5.40;88.90;;;;;;5056149;28;20025;-73
2022/03/10 08:18:37;;;;;;;41.65;20.38;;;5.20;86.70;;;;;;5056451;28;20440;-72
2022/03/10 08:21:03;;;;;;;82.00;37.22;;;4.70;87.20;;;;;;5056201;28;20435;-71
2022/03/10 08:23:29;;;;;;;33.40;17.20;;;4.60;89.60;;;;;;5056276;28;20039;-73
2022/03/10 08:25:55;;;;;;;27.75;13.25;;;4.60;90.80;;;;;;5056186;28;20060;-73
2022/03/10 08:28:22;;;;;;;146.32;54.47;;;4.80;91.40;;;;;;5056083;28;20124;-72
2022/03/10 08:30:48;;;;;;;42.28;17.63;;;4.90;91.90;;;;;;5055810;28;20045;-75
2022/03/10 08:33:13;;;;;;;58.17;25.05;;;4.70;91.10;;;;;;5055760;28;20078;-75
2022/03/10 08:35:39;;;;;;;45.80;22.45;;;4.90;91.80;;;;;;5055650;28;20029;-75
2022/03/10 08:38:05;;;;;;;149.55;58.45;;;5.20;90.50;;;;;;5056299;28;20036;-76
2022/03/10 08:40:31;;;;;;;39.92;19.75;;;5.30;89.10;;;;;;5055795;28;20526;-75
2022/03/10 08:42:57;;;;;;;27.65;14.00;;;6.00;87.80;;;;;;5055671;28;20076;-74
2022/03/10 08:45:25;;;;;;;29.40;15.70;;;6.00;83.80;;;;;;5056154;28;20021;-72
2022/03/10 08:47:54;;;;;;;29.48;14.88;;;6.70;84.60;;;;;;5055875;28;20021;-72
2022/03/10 08:50:24;;;;;;;47.08;20.50;;;7.00;81.10;;;;;;5055898;28;20029;-74
2022/03/10 08:52:50;;;;;;;20.52;11.38;;;6.70;77.30;;;;;;5055387;28;20541;-73
2022/03/10 08:55:17;;;;;;;20.20;11.18;;;7.00;78.00;;;;;;5055521;28;20031;-72
2022/03/10 08:57:43;;;;;;;32.17;16.48;;;7.10;77.50;;;;;;5055304;28;20025;-72
2022/03/10 09:00:10;;;;;;;20.63;12.02;;;7.40;78.20;;;;;;5055379;28;20021;-71
2022/03/10 09:02:36;;;;;;;21.88;12.65;;;7.30;75.20;;;;;;5055644;28;20405;-71
2022/03/10 09:05:04;;;;;;;53.78;27.35;;;7.10;74.50;;;;;;5055408;28;20025;-73
2022/03/10 09:07:29;;;;;;;33.95;19.15;;;7.40;75.00;;;;;;5055227;28;20032;-74
2022/03/10 09:09:55;;;;;;;25.98;15.25;;;7.70;76.80;;;;;;5055420;28;20033;-73
2022/03/10 09:12:21;;;;;;;39.47;21.13;;;7.50;74.60;;;;;;5054983;28;20032;-72
2022/03/10 09:14:47;;;;;;;30.70;15.10;;;8.10;75.40;;;;;;5054846;28;20029;-72
2022/03/10 09:17:13;;;;;;;31.20;13.70;;;8.20;74.80;;;;;;5054327;28;20471;-72
2022/03/10 09:19:39;;;;;;;31.40;15.40;;;8.20;71.00;;;;;;5055092;28;20460;-72
2022/03/10 09:22:05;;;;;;;22.35;11.68;;;8.00;70.90;;;;;;5054914;28;20029;-72
2022/03/10 09:24:31;;;;;;;27.60;14.77;;;8.20;69.70;;;;;;5054726;28;20040;-74
2022/03/10 09:26:57;;;;;;;24.73;13.70;;;8.40;71.50;;;;;;5055021;28;20029;-73
2022/03/10 09:29:23;;;;;;;28.85;14.25;;;7.80;69.90;;;;;;5054472;28;20060;-72
2022/03/10 09:31:49;;;;;;;31.35;17.23;;;7.00;70.40;;;;;;5054961;28;20376;-72
2022/03/10 09:34:15;;;;;;;22.83;14.65;;;7.50;70.90;;;;;;5054642;28;20048;-72
2022/03/10 09:36:41;;;;;;;24.20;13.13;;;7.70;68.20;;;;;;5055006;28;20111;-72
2022/03/10 09:39:07;;;;;;;28.50;15.95;;;7.70;66.80;;;;;;5054774;28;20558;-74
2022/03/10 09:41:33;;;;;;;22.13;13.40;;;8.60;67.70;;;;;;5054474;28;20053;-72
2022/03/10 09:44:00;;;;;;;25.25;14.10;;;8.40;64.90;;;;;;5054630;28;20464;-71
2022/03/10 09:46:26;;;;;;;24.55;14.45;;;8.30;64.30;;;;;;5054572;28;20033;-72
2022/03/10 09:48:54;;;;;;;25.55;14.90;;;7.80;65.30;;;;;;5054675;28;20052;-73
2022/03/10 09:51:22;;;;;;;27.90;14.13;;;7.50;65.30;;;;;;5054642;28;20080;-72
2022/03/10 09:53:48;;;;;;;30.60;15.35;;;7.50;66.70;;;;;;5054168;28;20356;-73
2022/03/10 09:56:15;;;;;;;24.65;13.48;;;7.20;66.00;;;;;;5054305;28;20028;-74
2022/03/10 09:58:40;;;;;;;31.83;14.05;;;8.40;66.40;;;;;;5054155;28;20104;-74
2022/03/10 10:01:07;;;;;;;21.13;11.65;;;8.80;65.20;;;;;;5054080;28;20100;-74
2022/03/10 10:03:33;;;;;;;31.92;16.52;;;9.10;63.00;;;;;;5054031;28;20029;-73
2022/03/10 10:06:02;;;;;;;24.05;12.57;;;9.50;63.30;;;;;;5053127;28;20028;-73
2022/03/10 10:08:34;;;;;;;30.55;13.82;;;9.20;60.00;;;;;;5052808;28;20021;-73
2022/03/10 10:11:00;;;;;;;30.77;13.82;;;9.10;59.40;;;;;;5052369;28;20366;-73
2022/03/10 10:13:30;;;;;;;20.73;11.75;;;9.50;59.70;;;;;;5052807;28;20468;-73
2022/03/10 10:16:06;;;;;;;20.58;10.00;;;9.50;59.30;;;;;;5053799;28;20029;-73
2022/03/10 10:18:34;;;;;;;29.80;11.07;;;9.30;58.20;;;;;;5052227;28;20013;-72
2022/03/10 10:21:01;;;;;;;19.15;10.43;;;9.60;58.80;;;;;;5052693;28;20464;-73
2022/03/10 10:23:32;;;;;;;18.48;10.18;;;8.70;56.90;;;;;;5052589;28;20375;-72
2022/03/10 10:26:04;;;;;;;17.58;10.38;;;9.40;57.60;;;;;;5049815;28;20078;-72
2022/03/10 10:28:32;;;;;;;25.42;13.68;;;9.50;58.60;;;;;;5051622;28;20108;-72
2022/03/10 10:31:07;;;;;;;35.65;20.42;;;10.00;57.70;;;;;;5050453;28;20072;-73
2022/03/10 10:33:35;;;;;;;19.55;11.32;;;10.70;56.70;;;;;;5052148;28;20025;-74
2022/03/10 10:36:24;;;;;;;19.50;12.20;;;10.50;56.00;;;;;;5052098;28;20075;-72
2022/03/10 10:38:53;;;;;;;25.73;12.88;;;10.20;57.20;;;;;;5051406;28;20057;-73
2022/03/10 10:41:19;;;;;;;25.38;14.48;;;11.00;56.30;;;;;;5050164;28;20025;-73
2022/03/10 10:43:47;;;;;;;43.45;20.52;;;10.90;54.80;;;;;;5051821;28;20043;-72
2022/03/10 10:46:39;;;;;;;60.35;27.33;;;10.60;55.80;;;;;;5051752;28;20021;-73
2022/03/10 10:49:15;;;;;;;21.50;12.25;;;9.60;57.10;;;;;;5050947;28;20033;-73
2022/03/10 10:51:49;;;;;;;19.98;11.38;;;9.00;56.70;;;;;;5053151;28;20079;-72
2022/03/10 10:54:21;;;;;;;25.02;13.15;;;8.40;58.40;;;;;;5050990;28;20067;-73
2022/03/10 10:56:48;;;;;;;;;;;9.40;59.10;;;;;;5053410;28;20055;-73
2022/03/10 10:59:30;;;;;;;32.53;18.30;;;10.10;56.50;;;;;;5052885;28;19947;-74
2022/03/10 11:02:19;;;;;;;18.55;10.55;;;10.90;57.80;;;;;;5051204;28;20060;-74
2022/03/10 11:04:50;;;;;;;23.65;13.05;;;10.30;54.70;;;;;;5052418;28;20426;-74
2022/03/10 11:07:17;;;;;;;20.50;11.68;;;11.20;55.80;;;;;;5052575;28;20017;-74
2022/03/10 11:09:45;;;;;;;27.73;13.23;;;10.60;55.80;;;;;;5052845;28;20482;-73
2022/03/10 11:12:13;;;;;;;20.75;10.93;;;9.80;56.70;;;;;;5050126;28;20029;-74
2022/03/10 11:14:40;;;;;;;19.65;11.18;;;9.10;58.10;;;;;;5053098;28;20025;-74
2022/03/10 11:17:06;;;;;;;19.52;11.20;;;8.60;58.10;;;;;;5053280;28;20460;-73
2022/03/10 11:19:34;;;;;;;31.92;18.38;;;9.20;59.00;;;;;;5053335;28;20165;-74
2022/03/10 11:22:09;;;;;;;34.60;18.60;;;9.70;57.80;;;;;;5051990;28;20037;-75
2022/03/10 11:24:43;;;;;;;40.10;19.35;;;8.80;57.90;;;;;;5051706;28;20036;-73
2022/03/10 11:27:19;;;;;;;23.30;11.32;;;8.50;60.00;;;;;;5050453;28;20033;-74
2022/03/10 11:29:51;;;;;;;22.92;12.00;;;8.20;61.10;;;;;;5049403;28;20524;-74
2022/03/10 11:32:16;;;;;;;29.15;13.88;;;7.80;61.10;;;;;;5051547;28;20371;-73
2022/03/10 11:34:52;;;;;;;31.13;15.32;;;7.70;61.10;;;;;;5052553;28;20451;-74
2022/03/10 11:37:49;;;;;;;27.40;14.73;;;7.60;61.60;;;;;;5052921;28;20492;-74
2022/03/10 11:40:39;;;;;;;36.13;19.00;;;7.60;62.50;;;;;;5055769;28;20074;-72
2022/03/10 11:43:05;;;;;;;31.60;15.20;;;7.50;62.10;;;;;;5050386;28;20087;-72
2022/03/10 11:45:31;;;;;;;24.30;12.75;;;7.30;62.40;;;;;;5055345;28;20029;-72
2022/03/10 11:48:22;;;;;;;37.38;14.00;;;7.10;63.50;;;;;;5055403;28;20124;-73
2022/03/10 11:50:49;;;;;;;19.00;10.27;;;7.30;65.30;;;;;;5053509;28;20525;-74
2022/03/10 11:53:15;;;;;;;40.67;19.63;;;7.10;64.70;;;;;;5056213;28;20037;-74
2022/03/10 11:55:46;;;;;;;28.17;13.52;;;7.30;65.00;;;;;;5056009;28;20047;-73
2022/03/10 11:58:13;;;;;;;27.65;12.52;;;7.40;64.50;;;;;;5056803;28;20028;-74
2022/03/10 12:00:39;;;;;;;30.80;15.48;;;7.40;64.10;;;;;;5056604;28;20116;-73
2022/03/10 12:03:06;;;;;;;27.90;14.88;;;7.20;63.80;;;;;;5056362;28;20119;-73
2022/03/10 12:06:02;;;;;;;21.77;12.25;;;7.30;65.60;;;;;;5056548;28;20025;-73
2022/03/10 12:08:30;;;;;;;31.88;14.13;;;7.30;66.70;;;;;;5055328;28;20021;-73
2022/03/10 12:11:00;;;;;;;24.92;13.48;;;7.40;66.50;;;;;;5055836;28;20047;-73
2022/03/10 12:13:44;;;;;;;29.83;15.00;;;7.30;64.80;;;;;;5056470;28;20028;-73
2022/03/10 12:16:27;;;;;;;24.02;13.55;;;7.20;66.00;;;;;;5055959;28;20029;-72
2022/03/10 12:18:54;;;;;;;28.63;13.88;;;7.30;67.90;;;;;;5056328;28;20029;-73
2022/03/10 12:21:21;;;;;;;24.90;12.77;;;7.50;68.00;;;;;;5056457;28;20020;-72
2022/03/10 12:24:05;;;;;;;24.05;12.65;;;7.90;67.80;;;;;;5055753;28;20029;-72
2022/03/10 12:26:40;;;;;;;22.45;13.15;;;7.50;68.20;;;;;;5056091;28;20021;-72
2022/03/10 12:29:08;;;;;;;25.17;14.20;;;7.40;68.00;;;;;;5055989;28;20108;-72
2022/03/10 12:31:35;;;;;;;27.40;14.38;;;7.20;69.20;;;;;;5056016;28;20036;-72
2022/03/10 12:34:14;;;;;;;30.48;15.45;;;7.40;70.00;;;;;;5055987;28;20021;-72
2022/03/10 12:36:49;;;;;;;23.40;12.23;;;7.60;70.20;;;;;;5056116;28;20028;-73
2022/03/10 12:39:20;;;;;;;33.35;16.35;;;9.20;67.90;;;;;;5055478;28;20108;-74
2022/03/10 12:42:04;;;;;;;29.58;14.65;;;9.20;64.90;;;;;;5055599;28;20036;-71
2022/03/10 12:44:30;;;;;;;25.15;13.82;;;8.60;67.10;;;;;;5055721;28;20120;-73